EGKB/BQH METAR and TAF weather

Enter ICAO airport designator
Station Type Date Time Source
EGKB METAR 2022/05/24 21:20 UTC NOAA

EGKB 242120Z 20007KT 9999 SCT040 10/08 Q1011


Station Type Date Time Source
EGKB Decoded METAR 2022/05/24 21:20 UTC NOAA

Biggin Hill , United Kingdom (EGKB) 51-19N 000-02E
May 24, 2022 - 05:20 PM EDT / 2022.05.24 2120 UTC
Wind: from the SSW (200 degrees) at 8 MPH (7 KT):0
Visibility: greater than 7 mile(s):0
Sky conditions: partly cloudy
Temperature: 50 F (10 C)
Dew Point: 46 F (8 C)
Relative Humidity: 87%
Pressure (altimeter): 29.85 in. Hg (1011 hPa)
ob: EGKB 242120Z 20007KT 9999 SCT040 10/08 Q1011
cycle: 21

Station Type Date Time Source
EGKB TAF 2020/08/09 21:40 UTC NOAA

TAF EGKB 092127Z 0921/1021 CNL

Example: see airport list